sensor_id;sensor_type;location;lat;lon;timestamp;P1;durP1;ratioP1;P2;durP2;ratioP2
51384;SDS011;37478;55.682;37.462;2023-05-19T00:01:25;5.22;;;3.47;;
51384;SDS011;37478;55.682;37.462;2023-05-19T00:03:55;4.43;;;3.47;;
51384;SDS011;37478;55.682;37.462;2023-05-19T00:06:27;6.85;;;3.42;;
51384;SDS011;37478;55.682;37.462;2023-05-19T00:09:04;3.95;;;3.45;;
51384;SDS011;37478;55.682;37.462;2023-05-19T00:11:31;5.38;;;3.85;;
51384;SDS011;37478;55.682;37.462;2023-05-19T00:13:57;4.78;;;3.75;;
51384;SDS011;37478;55.682;37.462;2023-05-19T00:16:23;5.45;;;3.38;;
51384;SDS011;37478;55.682;37.462;2023-05-19T00:18:48;5.00;;;3.70;;
51384;SDS011;37478;55.682;37.462;2023-05-19T00:21:14;4.65;;;3.22;;
51384;SDS011;37478;55.682;37.462;2023-05-19T00:23:40;5.78;;;3.47;;
51384;SDS011;37478;55.682;37.462;2023-05-19T00:26:05;4.97;;;4.07;;
51384;SDS011;37478;55.682;37.462;2023-05-19T00:28:30;6.60;;;3.63;;
51384;SDS011;37478;55.682;37.462;2023-05-19T00:30:56;4.45;;;3.45;;
51384;SDS011;37478;55.682;37.462;2023-05-19T00:33:21;5.20;;;3.75;;
51384;SDS011;37478;55.682;37.462;2023-05-19T00:35:46;4.68;;;3.33;;
51384;SDS011;37478;55.682;37.462;2023-05-19T00:38:12;6.15;;;2.95;;
51384;SDS011;37478;55.682;37.462;2023-05-19T00:40:37;4.20;;;3.00;;
51384;SDS011;37478;55.682;37.462;2023-05-19T00:43:02;4.53;;;2.53;;
51384;SDS011;37478;55.682;37.462;2023-05-19T00:45:29;3.20;;;2.35;;
51384;SDS011;37478;55.682;37.462;2023-05-19T00:47:55;6.65;;;2.38;;
51384;SDS011;37478;55.682;37.462;2023-05-19T00:50:20;2.85;;;2.05;;
51384;SDS011;37478;55.682;37.462;2023-05-19T00:52:45;3.83;;;2.47;;
51384;SDS011;37478;55.682;37.462;2023-05-19T00:55:11;2.95;;;2.45;;
51384;SDS011;37478;55.682;37.462;2023-05-19T00:57:37;3.10;;;2.47;;
51384;SDS011;37478;55.682;37.462;2023-05-19T01:00:03;4.93;;;2.50;;
51384;SDS011;37478;55.682;37.462;2023-05-19T01:02:29;3.67;;;2.35;;
51384;SDS011;37478;55.682;37.462;2023-05-19T01:04:56;2.17;;;1.70;;
51384;SDS011;37478;55.682;37.462;2023-05-19T01:07:21;3.20;;;2.58;;
51384;SDS011;37478;55.682;37.462;2023-05-19T01:09:47;2.92;;;2.15;;
51384;SDS011;37478;55.682;37.462;2023-05-19T01:12:13;4.97;;;2.08;;
51384;SDS011;37478;55.682;37.462;2023-05-19T01:14:38;2.90;;;1.90;;
51384;SDS011;37478;55.682;37.462;2023-05-19T01:17:08;5.07;;;2.33;;
51384;SDS011;37478;55.682;37.462;2023-05-19T01:32:40;2.97;;;1.85;;
51384;SDS011;37478;55.682;37.462;2023-05-19T01:35:05;4.28;;;2.28;;
51384;SDS011;37478;55.682;37.462;2023-05-19T01:37:32;2.00;;;1.55;;
51384;SDS011;37478;55.682;37.462;2023-05-19T01:39:58;1.95;;;1.52;;
51384;SDS011;37478;55.682;37.462;2023-05-19T01:42:23;2.45;;;1.75;;
51384;SDS011;37478;55.682;37.462;2023-05-19T01:44:49;3.58;;;1.50;;
51384;SDS011;37478;55.682;37.462;2023-05-19T01:47:15;1.17;;;1.08;;
51384;SDS011;37478;55.682;37.462;2023-05-19T01:49:40;4.78;;;2.30;;
51384;SDS011;37478;55.682;37.462;2023-05-19T01:52:06;2.42;;;1.30;;
51384;SDS011;37478;55.682;37.462;2023-05-19T01:54:31;1.20;;;1.10;;
51384;SDS011;37478;55.682;37.462;2023-05-19T01:57:06;1.65;;;1.40;;
51384;SDS011;37478;55.682;37.462;2023-05-19T02:01:59;4.63;;;2.20;;
51384;SDS011;37478;55.682;37.462;2023-05-19T02:11:54;5.55;;;3.30;;
51384;SDS011;37478;55.682;37.462;2023-05-19T02:14:24;5.75;;;3.53;;
51384;SDS011;37478;55.682;37.462;2023-05-19T02:16:53;4.68;;;3.80;;
51384;SDS011;37478;55.682;37.462;2023-05-19T02:21:46;9.68;;;4.03;;
51384;SDS011;37478;55.682;37.462;2023-05-19T02:24:11;4.50;;;3.53;;
51384;SDS011;37478;55.682;37.462;2023-05-19T02:26:37;6.15;;;4.20;;
51384;SDS011;37478;55.682;37.462;2023-05-19T02:29:02;5.43;;;3.38;;
51384;SDS011;37478;55.682;37.462;2023-05-19T02:31:27;6.68;;;3.80;;
51384;SDS011;37478;55.682;37.462;2023-05-19T02:33:52;7.05;;;3.30;;
51384;SDS011;37478;55.682;37.462;2023-05-19T02:36:18;5.70;;;3.40;;
51384;SDS011;37478;55.682;37.462;2023-05-19T02:38:43;5.45;;;3.28;;
51384;SDS011;37478;55.682;37.462;2023-05-19T02:41:08;6.25;;;3.10;;
51384;SDS011;37478;55.682;37.462;2023-05-19T02:43:33;10.55;;;4.40;;
51384;SDS011;37478;55.682;37.462;2023-05-19T02:45:59;8.55;;;3.80;;
51384;SDS011;37478;55.682;37.462;2023-05-19T02:48:24;5.07;;;3.20;;
51384;SDS011;37478;55.682;37.462;2023-05-19T02:50:50;6.88;;;3.95;;
51384;SDS011;37478;55.682;37.462;2023-05-19T02:53:15;5.20;;;3.20;;
51384;SDS011;37478;55.682;37.462;2023-05-19T02:55:41;4.70;;;2.95;;
51384;SDS011;37478;55.682;37.462;2023-05-19T02:58:06;3.53;;;2.95;;
51384;SDS011;37478;55.682;37.462;2023-05-19T03:00:31;4.28;;;3.10;;
51384;SDS011;37478;55.682;37.462;2023-05-19T03:02:56;5.35;;;4.00;;
51384;SDS011;37478;55.682;37.462;2023-05-19T03:05:26;7.75;;;3.40;;
51384;SDS011;37478;55.682;37.462;2023-05-19T03:07:51;6.70;;;3.10;;
51384;SDS011;37478;55.682;37.462;2023-05-19T03:10:17;5.65;;;2.92;;
51384;SDS011;37478;55.682;37.462;2023-05-19T03:12:42;5.25;;;3.53;;
51384;SDS011;37478;55.682;37.462;2023-05-19T03:15:07;6.40;;;3.40;;
51384;SDS011;37478;55.682;37.462;2023-05-19T03:17:33;5.53;;;3.72;;
51384;SDS011;37478;55.682;37.462;2023-05-19T03:19:58;5.45;;;3.30;;
51384;SDS011;37478;55.682;37.462;2023-05-19T03:22:24;5.93;;;2.83;;
51384;SDS011;37478;55.682;37.462;2023-05-19T03:24:49;5.72;;;3.08;;
51384;SDS011;37478;55.682;37.462;2023-05-19T03:27:17;5.88;;;3.90;;
51384;SDS011;37478;55.682;37.462;2023-05-19T03:29:42;5.20;;;3.45;;
51384;SDS011;37478;55.682;37.462;2023-05-19T03:32:07;5.03;;;3.20;;
51384;SDS011;37478;55.682;37.462;2023-05-19T03:34:33;5.90;;;3.85;;
51384;SDS011;37478;55.682;37.462;2023-05-19T03:36:59;5.88;;;3.83;;
51384;SDS011;37478;55.682;37.462;2023-05-19T03:39:24;4.38;;;3.53;;
51384;SDS011;37478;55.682;37.462;2023-05-19T03:41:50;4.63;;;3.10;;
51384;SDS011;37478;55.682;37.462;2023-05-19T03:44:15;6.22;;;3.70;;
51384;SDS011;37478;55.682;37.462;2023-05-19T03:46:40;9.98;;;4.45;;
51384;SDS011;37478;55.682;37.462;2023-05-19T03:49:06;6.22;;;4.07;;
51384;SDS011;37478;55.682;37.462;2023-05-19T03:51:31;8.32;;;3.67;;
51384;SDS011;37478;55.682;37.462;2023-05-19T03:53:58;6.93;;;4.50;;
51384;SDS011;37478;55.682;37.462;2023-05-19T03:56:24;6.22;;;3.95;;
51384;SDS011;37478;55.682;37.462;2023-05-19T03:58:51;5.22;;;3.90;;
51384;SDS011;37478;55.682;37.462;2023-05-19T04:01:18;8.73;;;3.88;;
51384;SDS011;37478;55.682;37.462;2023-05-19T04:03:44;8.50;;;4.32;;
51384;SDS011;37478;55.682;37.462;2023-05-19T04:06:09;8.00;;;4.70;;
51384;SDS011;37478;55.682;37.462;2023-05-19T04:08:34;6.70;;;3.78;;
51384;SDS011;37478;55.682;37.462;2023-05-19T04:11:00;8.82;;;4.75;;
51384;SDS011;37478;55.682;37.462;2023-05-19T04:13:25;9.73;;;4.47;;
51384;SDS011;37478;55.682;37.462;2023-05-19T04:15:50;6.18;;;4.05;;
51384;SDS011;37478;55.682;37.462;2023-05-19T04:18:16;7.45;;;4.70;;
51384;SDS011;37478;55.682;37.462;2023-05-19T04:20:41;6.30;;;4.85;;
51384;SDS011;37478;55.682;37.462;2023-05-19T04:23:06;7.25;;;4.57;;
51384;SDS011;37478;55.682;37.462;2023-05-19T04:25:32;8.52;;;5.30;;
51384;SDS011;37478;55.682;37.462;2023-05-19T04:28:00;8.25;;;4.90;;
51384;SDS011;37478;55.682;37.462;2023-05-19T04:30:25;10.18;;;5.50;;
51384;SDS011;37478;55.682;37.462;2023-05-19T04:32:50;7.93;;;4.50;;
51384;SDS011;37478;55.682;37.462;2023-05-19T04:35:15;8.77;;;4.60;;
51384;SDS011;37478;55.682;37.462;2023-05-19T04:37:44;7.40;;;4.20;;
51384;SDS011;37478;55.682;37.462;2023-05-19T04:40:12;9.82;;;5.20;;
51384;SDS011;37478;55.682;37.462;2023-05-19T04:42:38;9.27;;;5.47;;
51384;SDS011;37478;55.682;37.462;2023-05-19T04:45:07;10.05;;;6.13;;
51384;SDS011;37478;55.682;37.462;2023-05-19T04:47:33;9.95;;;5.38;;
51384;SDS011;37478;55.682;37.462;2023-05-19T04:50:01;14.43;;;5.20;;
51384;SDS011;37478;55.682;37.462;2023-05-19T04:52:26;8.45;;;5.22;;
51384;SDS011;37478;55.682;37.462;2023-05-19T04:54:52;12.73;;;5.20;;
51384;SDS011;37478;55.682;37.462;2023-05-19T04:57:18;11.15;;;5.10;;
51384;SDS011;37478;55.682;37.462;2023-05-19T04:59:43;9.95;;;5.15;;
51384;SDS011;37478;55.682;37.462;2023-05-19T05:02:08;9.77;;;5.28;;
51384;SDS011;37478;55.682;37.462;2023-05-19T05:04:34;8.90;;;5.07;;
51384;SDS011;37478;55.682;37.462;2023-05-19T05:07:00;9.95;;;5.10;;
51384;SDS011;37478;55.682;37.462;2023-05-19T05:09:25;8.32;;;5.10;;
51384;SDS011;37478;55.682;37.462;2023-05-19T05:11:50;12.35;;;4.70;;
51384;SDS011;37478;55.682;37.462;2023-05-19T05:14:16;10.70;;;5.40;;
51384;SDS011;37478;55.682;37.462;2023-05-19T05:16:41;8.38;;;5.50;;
51384;SDS011;37478;55.682;37.462;2023-05-19T05:19:07;7.68;;;5.40;;
51384;SDS011;37478;55.682;37.462;2023-05-19T05:21:32;10.20;;;5.38;;
51384;SDS011;37478;55.682;37.462;2023-05-19T05:23:58;9.75;;;5.30;;
51384;SDS011;37478;55.682;37.462;2023-05-19T05:26:23;8.77;;;6.00;;
51384;SDS011;37478;55.682;37.462;2023-05-19T05:28:52;9.30;;;5.88;;
51384;SDS011;37478;55.682;37.462;2023-05-19T05:31:17;11.25;;;5.95;;
51384;SDS011;37478;55.682;37.462;2023-05-19T05:33:43;11.35;;;6.38;;
51384;SDS011;37478;55.682;37.462;2023-05-19T05:36:08;9.98;;;6.35;;
51384;SDS011;37478;55.682;37.462;2023-05-19T05:38:33;9.77;;;6.38;;
51384;SDS011;37478;55.682;37.462;2023-05-19T05:40:59;10.02;;;6.53;;
51384;SDS011;37478;55.682;37.462;2023-05-19T05:43:26;10.10;;;6.15;;
51384;SDS011;37478;55.682;37.462;2023-05-19T05:45:51;12.07;;;6.75;;
51384;SDS011;37478;55.682;37.462;2023-05-19T05:48:16;10.13;;;6.50;;
51384;SDS011;37478;55.682;37.462;2023-05-19T05:50:42;11.10;;;6.57;;
51384;SDS011;37478;55.682;37.462;2023-05-19T05:53:08;12.50;;;7.15;;
51384;SDS011;37478;55.682;37.462;2023-05-19T05:55:33;12.43;;;6.70;;
51384;SDS011;37478;55.682;37.462;2023-05-19T05:57:59;12.57;;;7.63;;
51384;SDS011;37478;55.682;37.462;2023-05-19T06:00:26;13.27;;;7.88;;
51384;SDS011;37478;55.682;37.462;2023-05-19T06:02:52;14.07;;;8.18;;
51384;SDS011;37478;55.682;37.462;2023-05-19T06:05:17;16.33;;;8.55;;
51384;SDS011;37478;55.682;37.462;2023-05-19T06:07:43;11.88;;;7.63;;
51384;SDS011;37478;55.682;37.462;2023-05-19T06:10:08;13.30;;;8.82;;
51384;SDS011;37478;55.682;37.462;2023-05-19T06:12:34;14.43;;;8.40;;
51384;SDS011;37478;55.682;37.462;2023-05-19T06:15:00;13.25;;;9.20;;
51384;SDS011;37478;55.682;37.462;2023-05-19T06:17:26;13.57;;;8.23;;
51384;SDS011;37478;55.682;37.462;2023-05-19T06:19:51;14.25;;;8.20;;
51384;SDS011;37478;55.682;37.462;2023-05-19T06:22:16;16.35;;;7.97;;
51384;SDS011;37478;55.682;37.462;2023-05-19T06:24:41;17.38;;;9.48;;
51384;SDS011;37478;55.682;37.462;2023-05-19T06:27:07;15.27;;;8.48;;
51384;SDS011;37478;55.682;37.462;2023-05-19T06:29:32;13.35;;;9.32;;
51384;SDS011;37478;55.682;37.462;2023-05-19T06:31:57;17.23;;;9.93;;
51384;SDS011;37478;55.682;37.462;2023-05-19T06:34:23;14.60;;;8.75;;
51384;SDS011;37478;55.682;37.462;2023-05-19T06:36:48;19.58;;;9.52;;
51384;SDS011;37478;55.682;37.462;2023-05-19T06:39:13;12.88;;;9.40;;
51384;SDS011;37478;55.682;37.462;2023-05-19T06:41:39;18.58;;;10.10;;
51384;SDS011;37478;55.682;37.462;2023-05-19T06:44:05;19.55;;;10.40;;
51384;SDS011;37478;55.682;37.462;2023-05-19T06:46:30;14.38;;;9.35;;
51384;SDS011;37478;55.682;37.462;2023-05-19T06:48:56;16.60;;;9.55;;
51384;SDS011;37478;55.682;37.462;2023-05-19T06:51:21;15.48;;;8.52;;
51384;SDS011;37478;55.682;37.462;2023-05-19T06:53:47;14.25;;;10.02;;
51384;SDS011;37478;55.682;37.462;2023-05-19T06:56:12;15.70;;;9.30;;
51384;SDS011;37478;55.682;37.462;2023-05-19T06:58:39;17.52;;;9.52;;
51384;SDS011;37478;55.682;37.462;2023-05-19T07:01:04;21.92;;;10.15;;
51384;SDS011;37478;55.682;37.462;2023-05-19T07:03:30;15.23;;;9.32;;
51384;SDS011;37478;55.682;37.462;2023-05-19T07:05:55;18.90;;;9.75;;
51384;SDS011;37478;55.682;37.462;2023-05-19T07:08:20;16.50;;;9.73;;
51384;SDS011;37478;55.682;37.462;2023-05-19T07:10:46;16.13;;;8.65;;
51384;SDS011;37478;55.682;37.462;2023-05-19T07:13:11;15.43;;;9.57;;
51384;SDS011;37478;55.682;37.462;2023-05-19T07:15:36;19.58;;;10.13;;
51384;SDS011;37478;55.682;37.462;2023-05-19T07:18:02;15.88;;;9.05;;
51384;SDS011;37478;55.682;37.462;2023-05-19T07:20:27;18.15;;;11.02;;
51384;SDS011;37478;55.682;37.462;2023-05-19T07:22:52;17.95;;;10.05;;
51384;SDS011;37478;55.682;37.462;2023-05-19T07:25:18;17.77;;;8.68;;
51384;SDS011;37478;55.682;37.462;2023-05-19T07:27:43;14.70;;;9.32;;
51384;SDS011;37478;55.682;37.462;2023-05-19T07:30:09;17.20;;;10.35;;
51384;SDS011;37478;55.682;37.462;2023-05-19T07:32:35;14.35;;;8.77;;
51384;SDS011;37478;55.682;37.462;2023-05-19T07:35:00;16.75;;;8.63;;
51384;SDS011;37478;55.682;37.462;2023-05-19T07:37:25;16.20;;;9.48;;
51384;SDS011;37478;55.682;37.462;2023-05-19T07:39:51;12.85;;;9.48;;
51384;SDS011;37478;55.682;37.462;2023-05-19T07:42:16;17.55;;;10.43;;
51384;SDS011;37478;55.682;37.462;2023-05-19T07:44:41;19.83;;;10.05;;
51384;SDS011;37478;55.682;37.462;2023-05-19T07:47:07;16.00;;;9.20;;
51384;SDS011;37478;55.682;37.462;2023-05-19T07:49:38;16.65;;;9.90;;
51384;SDS011;37478;55.682;37.462;2023-05-19T07:52:03;12.85;;;9.35;;
51384;SDS011;37478;55.682;37.462;2023-05-19T07:54:28;15.68;;;8.50;;
51384;SDS011;37478;55.682;37.462;2023-05-19T07:56:53;13.85;;;9.55;;
51384;SDS011;37478;55.682;37.462;2023-05-19T07:59:19;16.48;;;10.30;;
51384;SDS011;37478;55.682;37.462;2023-05-19T08:01:44;16.02;;;9.40;;
51384;SDS011;37478;55.682;37.462;2023-05-19T08:04:09;14.27;;;9.48;;
51384;SDS011;37478;55.682;37.462;2023-05-19T08:06:36;10.82;;;7.50;;
51384;SDS011;37478;55.682;37.462;2023-05-19T08:09:01;12.95;;;8.93;;
51384;SDS011;37478;55.682;37.462;2023-05-19T08:11:32;13.13;;;7.28;;
51384;SDS011;37478;55.682;37.462;2023-05-19T08:13:58;14.50;;;8.45;;
51384;SDS011;37478;55.682;37.462;2023-05-19T08:16:23;12.90;;;7.72;;
51384;SDS011;37478;55.682;37.462;2023-05-19T08:18:49;17.00;;;8.20;;
51384;SDS011;37478;55.682;37.462;2023-05-19T08:21:14;12.95;;;7.03;;
51384;SDS011;37478;55.682;37.462;2023-05-19T08:23:39;14.43;;;8.88;;
51384;SDS011;37478;55.682;37.462;2023-05-19T08:26:04;15.30;;;6.68;;
51384;SDS011;37478;55.682;37.462;2023-05-19T08:28:30;11.80;;;7.03;;
51384;SDS011;37478;55.682;37.462;2023-05-19T08:30:56;12.57;;;7.53;;
51384;SDS011;37478;55.682;37.462;2023-05-19T08:33:21;12.93;;;8.10;;
51384;SDS011;37478;55.682;37.462;2023-05-19T08:35:47;9.32;;;6.28;;
51384;SDS011;37478;55.682;37.462;2023-05-19T08:38:12;13.90;;;5.55;;
51384;SDS011;37478;55.682;37.462;2023-05-19T08:40:39;10.32;;;6.30;;
51384;SDS011;37478;55.682;37.462;2023-05-19T08:43:05;9.90;;;5.28;;
51384;SDS011;37478;55.682;37.462;2023-05-19T08:45:30;7.43;;;4.43;;
51384;SDS011;37478;55.682;37.462;2023-05-19T08:47:58;9.70;;;5.47;;
51384;SDS011;37478;55.682;37.462;2023-05-19T08:50:25;7.72;;;4.35;;
51384;SDS011;37478;55.682;37.462;2023-05-19T08:55:35;9.77;;;4.72;;
51384;SDS011;37478;55.682;37.462;2023-05-19T08:58:03;9.95;;;4.32;;
51384;SDS011;37478;55.682;37.462;2023-05-19T09:00:29;9.70;;;4.82;;
51384;SDS011;37478;55.682;37.462;2023-05-19T09:02:54;15.55;;;5.25;;
51384;SDS011;37478;55.682;37.462;2023-05-19T09:05:19;9.00;;;4.25;;
51384;SDS011;37478;55.682;37.462;2023-05-19T09:07:45;8.57;;;3.88;;
51384;SDS011;37478;55.682;37.462;2023-05-19T09:10:12;12.05;;;5.65;;
51384;SDS011;37478;55.682;37.462;2023-05-19T09:12:42;6.35;;;3.88;;
51384;SDS011;37478;55.682;37.462;2023-05-19T09:15:09;5.25;;;3.03;;
51384;SDS011;37478;55.682;37.462;2023-05-19T09:17:35;7.03;;;3.80;;
51384;SDS011;37478;55.682;37.462;2023-05-19T09:20:01;8.32;;;3.53;;
51384;SDS011;37478;55.682;37.462;2023-05-19T09:22:28;10.38;;;4.57;;
51384;SDS011;37478;55.682;37.462;2023-05-19T09:24:54;10.27;;;3.92;;
51384;SDS011;37478;55.682;37.462;2023-05-19T09:27:20;5.88;;;4.32;;
51384;SDS011;37478;55.682;37.462;2023-05-19T09:29:47;6.35;;;3.60;;
51384;SDS011;37478;55.682;37.462;2023-05-19T09:32:13;6.95;;;3.78;;
51384;SDS011;37478;55.682;37.462;2023-05-19T09:34:48;6.60;;;4.10;;
51384;SDS011;37478;55.682;37.462;2023-05-19T09:37:15;6.60;;;4.10;;
51384;SDS011;37478;55.682;37.462;2023-05-19T09:39:40;9.90;;;3.75;;
51384;SDS011;37478;55.682;37.462;2023-05-19T09:42:05;5.78;;;3.33;;
51384;SDS011;37478;55.682;37.462;2023-05-19T09:44:31;5.78;;;4.32;;
51384;SDS011;37478;55.682;37.462;2023-05-19T09:46:58;14.20;;;4.28;;
51384;SDS011;37478;55.682;37.462;2023-05-19T09:49:25;7.07;;;3.60;;
51384;SDS011;37478;55.682;37.462;2023-05-19T09:51:53;6.80;;;3.42;;
51384;SDS011;37478;55.682;37.462;2023-05-19T09:54:19;6.28;;;3.58;;
51384;SDS011;37478;55.682;37.462;2023-05-19T09:56:49;5.30;;;3.67;;
51384;SDS011;37478;55.682;37.462;2023-05-19T09:59:15;4.22;;;3.38;;
51384;SDS011;37478;55.682;37.462;2023-05-19T10:01:40;7.75;;;3.25;;
51384;SDS011;37478;55.682;37.462;2023-05-19T10:04:07;5.05;;;3.00;;
51384;SDS011;37478;55.682;37.462;2023-05-19T10:06:33;5.43;;;3.63;;
51384;SDS011;37478;55.682;37.462;2023-05-19T10:08:58;6.93;;;3.90;;
51384;SDS011;37478;55.682;37.462;2023-05-19T10:11:24;9.68;;;3.95;;
51384;SDS011;37478;55.682;37.462;2023-05-19T10:13:49;4.38;;;3.15;;
51384;SDS011;37478;55.682;37.462;2023-05-19T10:16:15;8.25;;;3.67;;
51384;SDS011;37478;55.682;37.462;2023-05-19T10:18:41;6.78;;;3.38;;
51384;SDS011;37478;55.682;37.462;2023-05-19T10:21:06;7.28;;;3.75;;
51384;SDS011;37478;55.682;37.462;2023-05-19T10:23:31;4.55;;;2.72;;
51384;SDS011;37478;55.682;37.462;2023-05-19T10:25:57;5.38;;;2.65;;
51384;SDS011;37478;55.682;37.462;2023-05-19T10:28:24;4.13;;;2.50;;
51384;SDS011;37478;55.682;37.462;2023-05-19T10:30:52;5.60;;;2.50;;
51384;SDS011;37478;55.682;37.462;2023-05-19T10:33:18;4.72;;;2.50;;
51384;SDS011;37478;55.682;37.462;2023-05-19T10:38:36;6.25;;;2.40;;
51384;SDS011;37478;55.682;37.462;2023-05-19T10:46:06;6.68;;;3.42;;
51384;SDS011;37478;55.682;37.462;2023-05-19T10:48:32;4.93;;;2.50;;
51384;SDS011;37478;55.682;37.462;2023-05-19T10:50:57;4.28;;;2.13;;
51384;SDS011;37478;55.682;37.462;2023-05-19T10:53:28;4.93;;;2.40;;
51384;SDS011;37478;55.682;37.462;2023-05-19T10:55:55;6.15;;;2.22;;
51384;SDS011;37478;55.682;37.462;2023-05-19T11:01:01;9.60;;;3.35;;
51384;SDS011;37478;55.682;37.462;2023-05-19T11:03:27;4.10;;;2.30;;
51384;SDS011;37478;55.682;37.462;2023-05-19T11:06:15;6.57;;;2.75;;
51384;SDS011;37478;55.682;37.462;2023-05-19T11:08:38;3.85;;;2.03;;
51384;SDS011;37478;55.682;37.462;2023-05-19T11:11:13;7.13;;;2.45;;
51384;SDS011;37478;55.682;37.462;2023-05-19T11:16:08;3.07;;;2.30;;
51384;SDS011;37478;55.682;37.462;2023-05-19T11:18:34;3.90;;;1.92;;
51384;SDS011;37478;55.682;37.462;2023-05-19T11:20:59;5.25;;;2.30;;
51384;SDS011;37478;55.682;37.462;2023-05-19T11:23:26;4.35;;;2.50;;
51384;SDS011;37478;55.682;37.462;2023-05-19T11:25:51;5.43;;;2.80;;
51384;SDS011;37478;55.682;37.462;2023-05-19T11:28:20;5.32;;;3.40;;
51384;SDS011;37478;55.682;37.462;2023-05-19T11:30:50;12.52;;;2.40;;
51384;SDS011;37478;55.682;37.462;2023-05-19T11:33:15;6.22;;;2.45;;
51384;SDS011;37478;55.682;37.462;2023-05-19T11:35:43;7.20;;;2.50;;
51384;SDS011;37478;55.682;37.462;2023-05-19T11:38:09;9.00;;;3.10;;
51384;SDS011;37478;55.682;37.462;2023-05-19T11:40:35;4.13;;;2.40;;
51384;SDS011;37478;55.682;37.462;2023-05-19T11:43:00;6.13;;;2.78;;
51384;SDS011;37478;55.682;37.462;2023-05-19T11:45:26;4.95;;;2.72;;
51384;SDS011;37478;55.682;37.462;2023-05-19T11:47:53;5.28;;;2.25;;
51384;SDS011;37478;55.682;37.462;2023-05-19T11:50:19;13.15;;;3.10;;
51384;SDS011;37478;55.682;37.462;2023-05-19T11:52:44;5.63;;;2.95;;
51384;SDS011;37478;55.682;37.462;2023-05-19T11:55:18;8.10;;;2.30;;
51384;SDS011;37478;55.682;37.462;2023-05-19T12:00:21;2.75;;;1.63;;
51384;SDS011;37478;55.682;37.462;2023-05-19T12:02:47;7.65;;;2.40;;
51384;SDS011;37478;55.682;37.462;2023-05-19T12:05:22;6.07;;;2.08;;
51384;SDS011;37478;55.682;37.462;2023-05-19T12:07:48;6.78;;;3.00;;
51384;SDS011;37478;55.682;37.462;2023-05-19T12:10:15;5.70;;;2.53;;
51384;SDS011;37478;55.682;37.462;2023-05-19T12:12:40;6.90;;;2.38;;
51384;SDS011;37478;55.682;37.462;2023-05-19T12:15:06;9.85;;;2.75;;
51384;SDS011;37478;55.682;37.462;2023-05-19T12:17:32;4.63;;;2.58;;
51384;SDS011;37478;55.682;37.462;2023-05-19T12:19:57;2.95;;;2.50;;
51384;SDS011;37478;55.682;37.462;2023-05-19T12:22:23;6.65;;;2.45;;
51384;SDS011;37478;55.682;37.462;2023-05-19T12:24:48;4.38;;;2.22;;
51384;SDS011;37478;55.682;37.462;2023-05-19T12:27:24;6.22;;;2.72;;
51384;SDS011;37478;55.682;37.462;2023-05-19T12:29:53;6.22;;;1.90;;
51384;SDS011;37478;55.682;37.462;2023-05-19T12:32:22;4.78;;;1.85;;
51384;SDS011;37478;55.682;37.462;2023-05-19T12:34:47;7.65;;;3.45;;
51384;SDS011;37478;55.682;37.462;2023-05-19T12:37:13;7.60;;;1.95;;
51384;SDS011;37478;55.682;37.462;2023-05-19T12:39:40;3.60;;;2.15;;
51384;SDS011;37478;55.682;37.462;2023-05-19T12:42:06;3.47;;;2.15;;
51384;SDS011;37478;55.682;37.462;2023-05-19T12:44:35;6.50;;;2.55;;
51384;SDS011;37478;55.682;37.462;2023-05-19T12:47:02;7.32;;;1.98;;
51384;SDS011;37478;55.682;37.462;2023-05-19T12:49:29;6.93;;;2.17;;
51384;SDS011;37478;55.682;37.462;2023-05-19T12:51:55;9.07;;;2.05;;
51384;SDS011;37478;55.682;37.462;2023-05-19T12:54:20;4.95;;;2.38;;
51384;SDS011;37478;55.682;37.462;2023-05-19T12:56:51;11.05;;;2.72;;
51384;SDS011;37478;55.682;37.462;2023-05-19T12:59:23;2.97;;;1.75;;
51384;SDS011;37478;55.682;37.462;2023-05-19T13:01:58;8.75;;;2.55;;
51384;SDS011;37478;55.682;37.462;2023-05-19T13:04:23;3.78;;;2.25;;
51384;SDS011;37478;55.682;37.462;2023-05-19T13:06:49;4.40;;;1.90;;
51384;SDS011;37478;55.682;37.462;2023-05-19T13:09:15;6.78;;;3.00;;
51384;SDS011;37478;55.682;37.462;2023-05-19T13:11:44;5.93;;;1.75;;
51384;SDS011;37478;55.682;37.462;2023-05-19T13:14:12;4.95;;;2.65;;
51384;SDS011;37478;55.682;37.462;2023-05-19T13:16:39;5.95;;;2.65;;
51384;SDS011;37478;55.682;37.462;2023-05-19T13:19:05;6.78;;;1.88;;
51384;SDS011;37478;55.682;37.462;2023-05-19T13:21:30;2.60;;;1.80;;
51384;SDS011;37478;55.682;37.462;2023-05-19T13:24:01;5.22;;;1.90;;
51384;SDS011;37478;55.682;37.462;2023-05-19T13:26:28;7.22;;;2.08;;
51384;SDS011;37478;55.682;37.462;2023-05-19T13:28:53;6.30;;;1.77;;
51384;SDS011;37478;55.682;37.462;2023-05-19T13:31:18;2.05;;;1.67;;
51384;SDS011;37478;55.682;37.462;2023-05-19T13:33:44;4.43;;;2.08;;
51384;SDS011;37478;55.682;37.462;2023-05-19T13:36:09;4.30;;;1.75;;
51384;SDS011;37478;55.682;37.462;2023-05-19T13:38:35;4.72;;;1.98;;
51384;SDS011;37478;55.682;37.462;2023-05-19T13:41:00;4.30;;;1.77;;
51384;SDS011;37478;55.682;37.462;2023-05-19T13:43:25;4.45;;;1.60;;
51384;SDS011;37478;55.682;37.462;2023-05-19T13:45:51;7.30;;;1.90;;
51384;SDS011;37478;55.682;37.462;2023-05-19T13:48:16;2.67;;;2.03;;
51384;SDS011;37478;55.682;37.462;2023-05-19T13:50:42;2.30;;;1.60;;
51384;SDS011;37478;55.682;37.462;2023-05-19T13:53:07;2.97;;;2.00;;
51384;SDS011;37478;55.682;37.462;2023-05-19T13:55:32;4.15;;;1.52;;
51384;SDS011;37478;55.682;37.462;2023-05-19T13:57:58;4.95;;;1.90;;
51384;SDS011;37478;55.682;37.462;2023-05-19T14:00:23;5.10;;;2.08;;
51384;SDS011;37478;55.682;37.462;2023-05-19T14:02:48;4.55;;;1.45;;
51384;SDS011;37478;55.682;37.462;2023-05-19T14:05:14;4.28;;;2.50;;
51384;SDS011;37478;55.682;37.462;2023-05-19T14:07:39;7.78;;;2.45;;
51384;SDS011;37478;55.682;37.462;2023-05-19T14:10:05;8.32;;;1.80;;
51384;SDS011;37478;55.682;37.462;2023-05-19T14:12:31;8.88;;;2.35;;
51384;SDS011;37478;55.682;37.462;2023-05-19T14:14:56;6.60;;;1.92;;
51384;SDS011;37478;55.682;37.462;2023-05-19T14:17:21;3.00;;;1.63;;
51384;SDS011;37478;55.682;37.462;2023-05-19T14:19:47;7.38;;;2.83;;
51384;SDS011;37478;55.682;37.462;2023-05-19T14:22:12;3.83;;;1.55;;
51384;SDS011;37478;55.682;37.462;2023-05-19T14:24:37;3.92;;;1.75;;
51384;SDS011;37478;55.682;37.462;2023-05-19T14:27:03;4.20;;;2.25;;
51384;SDS011;37478;55.682;37.462;2023-05-19T14:29:28;3.85;;;1.95;;
51384;SDS011;37478;55.682;37.462;2023-05-19T14:31:55;6.70;;;2.20;;
51384;SDS011;37478;55.682;37.462;2023-05-19T14:34:20;3.00;;;1.80;;
51384;SDS011;37478;55.682;37.462;2023-05-19T14:36:45;4.45;;;2.20;;
51384;SDS011;37478;55.682;37.462;2023-05-19T14:39:11;4.97;;;1.85;;
51384;SDS011;37478;55.682;37.462;2023-05-19T14:41:36;7.10;;;2.00;;
51384;SDS011;37478;55.682;37.462;2023-05-19T14:44:02;7.43;;;2.35;;
51384;SDS011;37478;55.682;37.462;2023-05-19T14:46:27;4.95;;;1.90;;
51384;SDS011;37478;55.682;37.462;2023-05-19T14:48:52;4.05;;;1.65;;
51384;SDS011;37478;55.682;37.462;2023-05-19T14:51:18;5.05;;;1.75;;
51384;SDS011;37478;55.682;37.462;2023-05-19T14:53:43;5.82;;;2.00;;
51384;SDS011;37478;55.682;37.462;2023-05-19T14:56:15;4.28;;;2.33;;
51384;SDS011;37478;55.682;37.462;2023-05-19T14:58:40;5.20;;;2.00;;
51384;SDS011;37478;55.682;37.462;2023-05-19T15:01:05;5.63;;;2.17;;
51384;SDS011;37478;55.682;37.462;2023-05-19T15:03:31;3.17;;;1.95;;
51384;SDS011;37478;55.682;37.462;2023-05-19T15:05:56;5.95;;;1.88;;
51384;SDS011;37478;55.682;37.462;2023-05-19T15:08:27;3.28;;;1.52;;